sensor_id;sensor_type;location;lat;lon;timestamp;P1;durP1;ratioP1;P2;durP2;ratioP2
35188;SDS011;21762;54.480;18.556;2023-08-20T00:00:14;27.33;;;21.77;;
35188;SDS011;21762;54.480;18.556;2023-08-20T00:02:45;25.98;;;22.30;;
35188;SDS011;21762;54.480;18.556;2023-08-20T00:05:15;26.50;;;20.83;;
35188;SDS011;21762;54.480;18.556;2023-08-20T00:07:44;29.75;;;22.27;;
35188;SDS011;21762;54.480;18.556;2023-08-20T00:10:12;26.38;;;21.48;;
35188;SDS011;21762;54.480;18.556;2023-08-20T00:12:41;26.73;;;20.58;;
35188;SDS011;21762;54.480;18.556;2023-08-20T00:15:09;26.00;;;21.13;;
35188;SDS011;21762;54.480;18.556;2023-08-20T00:17:40;24.40;;;20.25;;
35188;SDS011;21762;54.480;18.556;2023-08-20T00:20:09;28.00;;;22.27;;
35188;SDS011;21762;54.480;18.556;2023-08-20T00:22:40;25.67;;;20.60;;
35188;SDS011;21762;54.480;18.556;2023-08-20T00:25:09;26.63;;;20.67;;
35188;SDS011;21762;54.480;18.556;2023-08-20T00:27:38;24.63;;;20.80;;
35188;SDS011;21762;54.480;18.556;2023-08-20T00:30:09;26.08;;;22.35;;
35188;SDS011;21762;54.480;18.556;2023-08-20T00:32:39;25.40;;;20.02;;
35188;SDS011;21762;54.480;18.556;2023-08-20T00:35:08;25.50;;;20.83;;
35188;SDS011;21762;54.480;18.556;2023-08-20T00:37:36;26.20;;;19.95;;
35188;SDS011;21762;54.480;18.556;2023-08-20T00:40:05;26.83;;;20.38;;
35188;SDS011;21762;54.480;18.556;2023-08-20T00:42:36;24.05;;;20.50;;
35188;SDS011;21762;54.480;18.556;2023-08-20T00:45:07;23.00;;;20.20;;
35188;SDS011;21762;54.480;18.556;2023-08-20T00:47:36;25.15;;;19.75;;
35188;SDS011;21762;54.480;18.556;2023-08-20T00:50:07;23.45;;;20.90;;
35188;SDS011;21762;54.480;18.556;2023-08-20T00:52:37;25.80;;;20.25;;
35188;SDS011;21762;54.480;18.556;2023-08-20T00:55:08;23.95;;;19.63;;
35188;SDS011;21762;54.480;18.556;2023-08-20T00:57:37;23.42;;;20.25;;
35188;SDS011;21762;54.480;18.556;2023-08-20T01:00:06;25.55;;;19.80;;
35188;SDS011;21762;54.480;18.556;2023-08-20T01:02:37;22.70;;;19.67;;
35188;SDS011;21762;54.480;18.556;2023-08-20T01:05:09;26.25;;;20.20;;
35188;SDS011;21762;54.480;18.556;2023-08-20T01:07:56;26.85;;;19.75;;
35188;SDS011;21762;54.480;18.556;2023-08-20T01:10:29;22.17;;;19.45;;
35188;SDS011;21762;54.480;18.556;2023-08-20T01:13:02;28.67;;;20.48;;
35188;SDS011;21762;54.480;18.556;2023-08-20T01:15:31;27.40;;;19.80;;
35188;SDS011;21762;54.480;18.556;2023-08-20T01:17:59;26.58;;;19.90;;
35188;SDS011;21762;54.480;18.556;2023-08-20T01:20:31;25.73;;;20.65;;
35188;SDS011;21762;54.480;18.556;2023-08-20T01:23:21;25.85;;;21.08;;
35188;SDS011;21762;54.480;18.556;2023-08-20T01:26:03;23.55;;;20.17;;
35188;SDS011;21762;54.480;18.556;2023-08-20T01:28:41;21.98;;;19.55;;
35188;SDS011;21762;54.480;18.556;2023-08-20T01:31:10;25.73;;;19.50;;
35188;SDS011;21762;54.480;18.556;2023-08-20T01:33:38;26.35;;;20.25;;
35188;SDS011;21762;54.480;18.556;2023-08-20T01:36:07;26.55;;;20.33;;
35188;SDS011;21762;54.480;18.556;2023-08-20T01:38:37;23.13;;;19.92;;
35188;SDS011;21762;54.480;18.556;2023-08-20T01:41:06;23.00;;;20.42;;
35188;SDS011;21762;54.480;18.556;2023-08-20T01:43:34;28.38;;;21.60;;
35188;SDS011;21762;54.480;18.556;2023-08-20T01:46:04;26.80;;;19.92;;
35188;SDS011;21762;54.480;18.556;2023-08-20T01:48:32;27.27;;;20.33;;
35188;SDS011;21762;54.480;18.556;2023-08-20T01:51:01;28.48;;;20.92;;
35188;SDS011;21762;54.480;18.556;2023-08-20T01:53:30;25.40;;;20.20;;
35188;SDS011;21762;54.480;18.556;2023-08-20T01:56:00;27.75;;;19.95;;
35188;SDS011;21762;54.480;18.556;2023-08-20T01:58:29;27.85;;;20.75;;
35188;SDS011;21762;54.480;18.556;2023-08-20T02:00:57;28.08;;;22.05;;
35188;SDS011;21762;54.480;18.556;2023-08-20T02:03:27;25.33;;;20.90;;
35188;SDS011;21762;54.480;18.556;2023-08-20T02:05:56;23.10;;;20.05;;
35188;SDS011;21762;54.480;18.556;2023-08-20T02:08:25;26.05;;;20.83;;
35188;SDS011;21762;54.480;18.556;2023-08-20T02:10:59;23.08;;;19.88;;
35188;SDS011;21762;54.480;18.556;2023-08-20T02:13:28;26.98;;;20.05;;
35188;SDS011;21762;54.480;18.556;2023-08-20T02:15:57;25.73;;;21.58;;
35188;SDS011;21762;54.480;18.556;2023-08-20T02:18:28;24.17;;;19.70;;
35188;SDS011;21762;54.480;18.556;2023-08-20T02:20:57;24.98;;;20.80;;
35188;SDS011;21762;54.480;18.556;2023-08-20T02:23:26;25.25;;;19.83;;
35188;SDS011;21762;54.480;18.556;2023-08-20T02:25:55;28.23;;;21.50;;
35188;SDS011;21762;54.480;18.556;2023-08-20T02:28:23;27.48;;;20.30;;
35188;SDS011;21762;54.480;18.556;2023-08-20T02:30:52;28.80;;;20.35;;
35188;SDS011;21762;54.480;18.556;2023-08-20T02:33:20;23.88;;;19.60;;
35188;SDS011;21762;54.480;18.556;2023-08-20T02:35:50;24.20;;;20.30;;
35188;SDS011;21762;54.480;18.556;2023-08-20T02:38:18;28.80;;;21.15;;
35188;SDS011;21762;54.480;18.556;2023-08-20T02:40:47;28.00;;;19.35;;
35188;SDS011;21762;54.480;18.556;2023-08-20T02:43:15;24.48;;;18.83;;
35188;SDS011;21762;54.480;18.556;2023-08-20T02:45:44;26.52;;;19.63;;
35188;SDS011;21762;54.480;18.556;2023-08-20T02:48:13;26.40;;;21.33;;
35188;SDS011;21762;54.480;18.556;2023-08-20T02:50:42;25.83;;;20.30;;
35188;SDS011;21762;54.480;18.556;2023-08-20T02:53:12;25.25;;;19.85;;
35188;SDS011;21762;54.480;18.556;2023-08-20T02:55:40;26.42;;;20.58;;
35188;SDS011;21762;54.480;18.556;2023-08-20T02:58:09;24.70;;;19.45;;
35188;SDS011;21762;54.480;18.556;2023-08-20T03:00:38;24.00;;;19.85;;
35188;SDS011;21762;54.480;18.556;2023-08-20T03:03:06;25.45;;;20.20;;
35188;SDS011;21762;54.480;18.556;2023-08-20T03:05:37;26.42;;;20.20;;
35188;SDS011;21762;54.480;18.556;2023-08-20T03:08:05;23.77;;;19.48;;
35188;SDS011;21762;54.480;18.556;2023-08-20T03:10:35;25.90;;;20.27;;
35188;SDS011;21762;54.480;18.556;2023-08-20T03:13:04;24.90;;;20.60;;
35188;SDS011;21762;54.480;18.556;2023-08-20T03:15:33;25.25;;;20.08;;
35188;SDS011;21762;54.480;18.556;2023-08-20T03:18:01;25.27;;;19.58;;
35188;SDS011;21762;54.480;18.556;2023-08-20T03:20:30;27.15;;;20.90;;
35188;SDS011;21762;54.480;18.556;2023-08-20T03:22:58;26.77;;;21.25;;
35188;SDS011;21762;54.480;18.556;2023-08-20T03:25:27;26.92;;;19.80;;
35188;SDS011;21762;54.480;18.556;2023-08-20T03:27:57;23.85;;;19.83;;
35188;SDS011;21762;54.480;18.556;2023-08-20T03:30:25;26.42;;;21.25;;
35188;SDS011;21762;54.480;18.556;2023-08-20T03:32:54;29.50;;;20.52;;
35188;SDS011;21762;54.480;18.556;2023-08-20T03:35:24;30.30;;;21.75;;
35188;SDS011;21762;54.480;18.556;2023-08-20T03:37:53;23.13;;;18.88;;
35188;SDS011;21762;54.480;18.556;2023-08-20T03:40:21;26.17;;;19.25;;
35188;SDS011;21762;54.480;18.556;2023-08-20T03:42:50;24.05;;;20.58;;
35188;SDS011;21762;54.480;18.556;2023-08-20T03:45:20;23.77;;;20.00;;
35188;SDS011;21762;54.480;18.556;2023-08-20T03:47:49;40.10;;;22.83;;
35188;SDS011;21762;54.480;18.556;2023-08-20T03:50:17;24.90;;;20.50;;
35188;SDS011;21762;54.480;18.556;2023-08-20T03:52:46;24.13;;;20.35;;
35188;SDS011;21762;54.480;18.556;2023-08-20T03:55:15;25.30;;;20.98;;
35188;SDS011;21762;54.480;18.556;2023-08-20T03:57:44;25.35;;;20.88;;
35188;SDS011;21762;54.480;18.556;2023-08-20T04:00:13;25.38;;;19.52;;
35188;SDS011;21762;54.480;18.556;2023-08-20T04:02:43;26.50;;;20.17;;
35188;SDS011;21762;54.480;18.556;2023-08-20T04:05:12;25.10;;;21.10;;
35188;SDS011;21762;54.480;18.556;2023-08-20T04:07:40;29.55;;;21.83;;
35188;SDS011;21762;54.480;18.556;2023-08-20T04:10:09;25.88;;;20.38;;
35188;SDS011;21762;54.480;18.556;2023-08-20T04:12:37;24.48;;;20.33;;
35188;SDS011;21762;54.480;18.556;2023-08-20T04:15:06;28.15;;;21.40;;
35188;SDS011;21762;54.480;18.556;2023-08-20T04:17:35;24.65;;;20.52;;
35188;SDS011;21762;54.480;18.556;2023-08-20T04:20:07;23.27;;;19.83;;
35188;SDS011;21762;54.480;18.556;2023-08-20T04:22:36;23.17;;;19.60;;
35188;SDS011;21762;54.480;18.556;2023-08-20T04:25:05;23.25;;;19.60;;
35188;SDS011;21762;54.480;18.556;2023-08-20T04:27:34;24.63;;;21.63;;
35188;SDS011;21762;54.480;18.556;2023-08-20T04:30:03;24.60;;;19.80;;
35188;SDS011;21762;54.480;18.556;2023-08-20T04:32:33;26.08;;;20.17;;
35188;SDS011;21762;54.480;18.556;2023-08-20T04:35:01;26.42;;;20.92;;
35188;SDS011;21762;54.480;18.556;2023-08-20T04:37:34;27.48;;;21.10;;
35188;SDS011;21762;54.480;18.556;2023-08-20T04:40:02;24.05;;;20.70;;
35188;SDS011;21762;54.480;18.556;2023-08-20T04:42:32;29.17;;;20.10;;
35188;SDS011;21762;54.480;18.556;2023-08-20T04:45:01;26.15;;;20.45;;
35188;SDS011;21762;54.480;18.556;2023-08-20T04:47:29;26.67;;;21.25;;
35188;SDS011;21762;54.480;18.556;2023-08-20T04:49:58;26.80;;;21.70;;
35188;SDS011;21762;54.480;18.556;2023-08-20T04:52:28;23.92;;;20.20;;
35188;SDS011;21762;54.480;18.556;2023-08-20T04:54:58;26.75;;;20.67;;
35188;SDS011;21762;54.480;18.556;2023-08-20T04:57:27;25.30;;;20.63;;
35188;SDS011;21762;54.480;18.556;2023-08-20T04:59:56;24.90;;;20.95;;
35188;SDS011;21762;54.480;18.556;2023-08-20T05:02:40;24.95;;;20.48;;
35188;SDS011;21762;54.480;18.556;2023-08-20T05:05:12;23.67;;;19.45;;
35188;SDS011;21762;54.480;18.556;2023-08-20T05:07:41;22.98;;;19.17;;
35188;SDS011;21762;54.480;18.556;2023-08-20T05:10:11;24.05;;;19.73;;
35188;SDS011;21762;54.480;18.556;2023-08-20T05:12:39;25.67;;;20.08;;
35188;SDS011;21762;54.480;18.556;2023-08-20T05:15:08;20.77;;;17.98;;
35188;SDS011;21762;54.480;18.556;2023-08-20T05:17:37;28.33;;;19.50;;
35188;SDS011;21762;54.480;18.556;2023-08-20T05:20:06;22.27;;;18.38;;
35188;SDS011;21762;54.480;18.556;2023-08-20T05:22:37;21.27;;;18.20;;
35188;SDS011;21762;54.480;18.556;2023-08-20T05:25:05;21.63;;;17.50;;
35188;SDS011;21762;54.480;18.556;2023-08-20T05:27:36;20.98;;;18.65;;
35188;SDS011;21762;54.480;18.556;2023-08-20T05:30:05;22.38;;;17.48;;
35188;SDS011;21762;54.480;18.556;2023-08-20T05:32:35;20.58;;;17.45;;
35188;SDS011;21762;54.480;18.556;2023-08-20T05:35:04;21.85;;;18.27;;
35188;SDS011;21762;54.480;18.556;2023-08-20T05:37:33;20.45;;;16.90;;
35188;SDS011;21762;54.480;18.556;2023-08-20T05:40:05;18.90;;;16.05;;
35188;SDS011;21762;54.480;18.556;2023-08-20T05:42:37;24.43;;;17.20;;
35188;SDS011;21762;54.480;18.556;2023-08-20T05:45:07;20.92;;;16.75;;
35188;SDS011;21762;54.480;18.556;2023-08-20T05:47:36;18.55;;;15.45;;
35188;SDS011;21762;54.480;18.556;2023-08-20T05:50:06;25.05;;;16.92;;
35188;SDS011;21762;54.480;18.556;2023-08-20T05:52:35;18.92;;;16.30;;
35188;SDS011;21762;54.480;18.556;2023-08-20T05:55:04;20.77;;;16.00;;
35188;SDS011;21762;54.480;18.556;2023-08-20T05:57:34;18.15;;;15.75;;
35188;SDS011;21762;54.480;18.556;2023-08-20T06:00:06;16.52;;;14.70;;
35188;SDS011;21762;54.480;18.556;2023-08-20T06:02:45;20.35;;;16.73;;
35188;SDS011;21762;54.480;18.556;2023-08-20T06:05:13;21.23;;;16.80;;
35188;SDS011;21762;54.480;18.556;2023-08-20T06:07:42;19.80;;;15.43;;
35188;SDS011;21762;54.480;18.556;2023-08-20T06:10:10;17.42;;;14.75;;
35188;SDS011;21762;54.480;18.556;2023-08-20T06:12:39;16.75;;;15.07;;
35188;SDS011;21762;54.480;18.556;2023-08-20T06:15:10;22.23;;;16.38;;
35188;SDS011;21762;54.480;18.556;2023-08-20T06:17:38;17.02;;;15.27;;
35188;SDS011;21762;54.480;18.556;2023-08-20T06:20:07;20.92;;;16.67;;
35188;SDS011;21762;54.480;18.556;2023-08-20T06:22:38;17.90;;;16.00;;
35188;SDS011;21762;54.480;18.556;2023-08-20T06:25:07;18.02;;;14.05;;
35188;SDS011;21762;54.480;18.556;2023-08-20T06:27:36;18.17;;;16.15;;
35188;SDS011;21762;54.480;18.556;2023-08-20T06:30:05;20.40;;;16.10;;
35188;SDS011;21762;54.480;18.556;2023-08-20T06:32:35;18.02;;;16.08;;
35188;SDS011;21762;54.480;18.556;2023-08-20T06:35:04;22.52;;;15.30;;
35188;SDS011;21762;54.480;18.556;2023-08-20T06:37:35;19.27;;;16.85;;
35188;SDS011;21762;54.480;18.556;2023-08-20T06:40:04;17.23;;;15.05;;
35188;SDS011;21762;54.480;18.556;2023-08-20T06:42:33;22.70;;;15.63;;
35188;SDS011;21762;54.480;18.556;2023-08-20T06:45:03;18.65;;;16.55;;
35188;SDS011;21762;54.480;18.556;2023-08-20T06:47:32;20.63;;;17.02;;
35188;SDS011;21762;54.480;18.556;2023-08-20T06:50:02;19.25;;;16.20;;
35188;SDS011;21762;54.480;18.556;2023-08-20T06:52:33;18.77;;;15.82;;
35188;SDS011;21762;54.480;18.556;2023-08-20T06:55:01;18.50;;;16.13;;
35188;SDS011;21762;54.480;18.556;2023-08-20T06:57:30;19.95;;;15.43;;
35188;SDS011;21762;54.480;18.556;2023-08-20T06:59:59;16.77;;;13.80;;
35188;SDS011;21762;54.480;18.556;2023-08-20T07:02:28;20.73;;;15.98;;
35188;SDS011;21762;54.480;18.556;2023-08-20T07:04:57;17.33;;;14.93;;
35188;SDS011;21762;54.480;18.556;2023-08-20T07:07:27;16.05;;;14.35;;
35188;SDS011;21762;54.480;18.556;2023-08-20T07:09:56;17.73;;;14.55;;
35188;SDS011;21762;54.480;18.556;2023-08-20T07:12:24;16.98;;;15.00;;
35188;SDS011;21762;54.480;18.556;2023-08-20T07:14:53;20.65;;;13.93;;
35188;SDS011;21762;54.480;18.556;2023-08-20T07:17:21;20.17;;;15.35;;
35188;SDS011;21762;54.480;18.556;2023-08-20T07:19:50;17.77;;;13.75;;
35188;SDS011;21762;54.480;18.556;2023-08-20T07:22:19;17.23;;;15.35;;
35188;SDS011;21762;54.480;18.556;2023-08-20T07:24:49;18.30;;;15.65;;
35188;SDS011;21762;54.480;18.556;2023-08-20T07:27:17;21.95;;;14.95;;
35188;SDS011;21762;54.480;18.556;2023-08-20T07:29:46;17.50;;;14.45;;
35188;SDS011;21762;54.480;18.556;2023-08-20T07:32:15;20.60;;;15.75;;
35188;SDS011;21762;54.480;18.556;2023-08-20T07:34:43;17.42;;;13.98;;
35188;SDS011;21762;54.480;18.556;2023-08-20T07:37:12;19.73;;;16.02;;
35188;SDS011;21762;54.480;18.556;2023-08-20T07:39:40;16.58;;;14.73;;
35188;SDS011;21762;54.480;18.556;2023-08-20T07:42:11;21.33;;;14.85;;
35188;SDS011;21762;54.480;18.556;2023-08-20T07:44:39;19.40;;;14.75;;
35188;SDS011;21762;54.480;18.556;2023-08-20T07:47:08;18.10;;;14.27;;
35188;SDS011;21762;54.480;18.556;2023-08-20T07:49:36;15.40;;;13.63;;
35188;SDS011;21762;54.480;18.556;2023-08-20T07:52:05;15.38;;;13.63;;
35188;SDS011;21762;54.480;18.556;2023-08-20T07:54:34;16.92;;;14.93;;
35188;SDS011;21762;54.480;18.556;2023-08-20T07:57:03;20.23;;;14.57;;
35188;SDS011;21762;54.480;18.556;2023-08-20T07:59:33;15.85;;;14.20;;
35188;SDS011;21762;54.480;18.556;2023-08-20T08:02:02;17.58;;;14.85;;
35188;SDS011;21762;54.480;18.556;2023-08-20T08:04:31;16.60;;;14.45;;
35188;SDS011;21762;54.480;18.556;2023-08-20T08:06:59;16.80;;;13.85;;
35188;SDS011;21762;54.480;18.556;2023-08-20T08:09:28;18.27;;;14.35;;
35188;SDS011;21762;54.480;18.556;2023-08-20T08:11:58;19.77;;;14.90;;
35188;SDS011;21762;54.480;18.556;2023-08-20T08:14:27;22.95;;;15.15;;
35188;SDS011;21762;54.480;18.556;2023-08-20T08:16:57;16.75;;;14.75;;
35188;SDS011;21762;54.480;18.556;2023-08-20T08:19:26;20.30;;;16.17;;
35188;SDS011;21762;54.480;18.556;2023-08-20T08:21:54;22.10;;;15.68;;
35188;SDS011;21762;54.480;18.556;2023-08-20T08:24:23;17.33;;;14.45;;
35188;SDS011;21762;54.480;18.556;2023-08-20T08:26:51;19.65;;;14.30;;
35188;SDS011;21762;54.480;18.556;2023-08-20T08:29:20;18.83;;;16.33;;
35188;SDS011;21762;54.480;18.556;2023-08-20T08:31:49;18.95;;;15.32;;
35188;SDS011;21762;54.480;18.556;2023-08-20T08:34:19;22.25;;;15.55;;
35188;SDS011;21762;54.480;18.556;2023-08-20T08:36:48;17.92;;;13.82;;
35188;SDS011;21762;54.480;18.556;2023-08-20T08:39:17;15.93;;;14.13;;
35188;SDS011;21762;54.480;18.556;2023-08-20T08:41:45;17.58;;;15.40;;
35188;SDS011;21762;54.480;18.556;2023-08-20T08:44:18;20.23;;;16.48;;
35188;SDS011;21762;54.480;18.556;2023-08-20T08:46:47;22.35;;;16.25;;
35188;SDS011;21762;54.480;18.556;2023-08-20T08:49:19;18.98;;;13.82;;
35188;SDS011;21762;54.480;18.556;2023-08-20T08:51:48;18.17;;;14.85;;
35188;SDS011;21762;54.480;18.556;2023-08-20T08:54:16;16.40;;;13.50;;
35188;SDS011;21762;54.480;18.556;2023-08-20T08:56:45;19.02;;;14.25;;
35188;SDS011;21762;54.480;18.556;2023-08-20T08:59:14;21.13;;;16.00;;
35188;SDS011;21762;54.480;18.556;2023-08-20T09:01:43;16.85;;;12.88;;
35188;SDS011;21762;54.480;18.556;2023-08-20T09:04:12;17.10;;;13.32;;
35188;SDS011;21762;54.480;18.556;2023-08-20T09:06:45;13.80;;;12.40;;
35188;SDS011;21762;54.480;18.556;2023-08-20T09:09:14;21.10;;;14.05;;
35188;SDS011;21762;54.480;18.556;2023-08-20T09:11:44;19.65;;;13.25;;
35188;SDS011;21762;54.480;18.556;2023-08-20T09:14:20;17.98;;;13.73;;
35188;SDS011;21762;54.480;18.556;2023-08-20T09:16:56;20.77;;;13.20;;
35188;SDS011;21762;54.480;18.556;2023-08-20T09:19:28;14.63;;;10.63;;
35188;SDS011;21762;54.480;18.556;2023-08-20T09:22:00;16.10;;;11.70;;
35188;SDS011;21762;54.480;18.556;2023-08-20T09:24:31;15.10;;;12.23;;
35188;SDS011;21762;54.480;18.556;2023-08-20T09:27:04;18.75;;;12.73;;
35188;SDS011;21762;54.480;18.556;2023-08-20T09:29:34;14.75;;;11.65;;
35188;SDS011;21762;54.480;18.556;2023-08-20T09:32:15;12.48;;;11.18;;
35188;SDS011;21762;54.480;18.556;2023-08-20T09:34:45;13.05;;;10.75;;
35188;SDS011;21762;54.480;18.556;2023-08-20T09:37:15;12.15;;;9.70;;
35188;SDS011;21762;54.480;18.556;2023-08-20T09:39:46;11.57;;;10.10;;
35188;SDS011;21762;54.480;18.556;2023-08-20T09:42:15;13.13;;;10.02;;
35188;SDS011;21762;54.480;18.556;2023-08-20T09:44:44;13.95;;;11.38;;
35188;SDS011;21762;54.480;18.556;2023-08-20T09:47:17;11.95;;;10.40;;
35188;SDS011;21762;54.480;18.556;2023-08-20T09:49:47;15.10;;;11.80;;
35188;SDS011;21762;54.480;18.556;2023-08-20T09:52:19;16.95;;;11.20;;
35188;SDS011;21762;54.480;18.556;2023-08-20T09:54:55;11.40;;;10.30;;
35188;SDS011;21762;54.480;18.556;2023-08-20T09:57:31;15.40;;;10.00;;
35188;SDS011;21762;54.480;18.556;2023-08-20T10:00:02;13.93;;;10.27;;
35188;SDS011;21762;54.480;18.556;2023-08-20T10:02:39;17.45;;;11.80;;
35188;SDS011;21762;54.480;18.556;2023-08-20T10:05:09;16.42;;;12.60;;
35188;SDS011;21762;54.480;18.556;2023-08-20T10:07:39;16.10;;;12.40;;
35188;SDS011;21762;54.480;18.556;2023-08-20T10:10:08;15.70;;;12.40;;
35188;SDS011;21762;54.480;18.556;2023-08-20T10:12:38;11.63;;;10.13;;
35188;SDS011;21762;54.480;18.556;2023-08-20T10:15:08;10.57;;;9.38;;
35188;SDS011;21762;54.480;18.556;2023-08-20T10:17:38;13.00;;;9.70;;
35188;SDS011;21762;54.480;18.556;2023-08-20T10:20:08;15.35;;;10.65;;
35188;SDS011;21762;54.480;18.556;2023-08-20T10:22:37;11.43;;;9.50;;
35188;SDS011;21762;54.480;18.556;2023-08-20T10:25:09;14.90;;;9.90;;
35188;SDS011;21762;54.480;18.556;2023-08-20T10:27:39;12.68;;;9.65;;
35188;SDS011;21762;54.480;18.556;2023-08-20T10:30:09;11.98;;;8.82;;
35188;SDS011;21762;54.480;18.556;2023-08-20T10:32:46;10.05;;;8.60;;
35188;SDS011;21762;54.480;18.556;2023-08-20T10:35:15;11.27;;;8.48;;
35188;SDS011;21762;54.480;18.556;2023-08-20T10:38:01;13.15;;;8.32;;
35188;SDS011;21762;54.480;18.556;2023-08-20T10:40:46;10.82;;;9.65;;
35188;SDS011;21762;54.480;18.556;2023-08-20T10:43:29;10.35;;;8.70;;
35188;SDS011;21762;54.480;18.556;2023-08-20T10:46:05;10.27;;;9.25;;
35188;SDS011;21762;54.480;18.556;2023-08-20T10:48:35;12.15;;;9.18;;
35188;SDS011;21762;54.480;18.556;2023-08-20T10:51:08;12.45;;;10.18;;
35188;SDS011;21762;54.480;18.556;2023-08-20T10:53:40;16.55;;;10.98;;
35188;SDS011;21762;54.480;18.556;2023-08-20T10:58:40;18.45;;;11.50;;
35188;SDS011;21762;54.480;18.556;2023-08-20T11:01:13;13.77;;;11.13;;
35188;SDS011;21762;54.480;18.556;2023-08-20T11:03:43;16.15;;;12.25;;
35188;SDS011;21762;54.480;18.556;2023-08-20T11:06:13;15.55;;;12.85;;
35188;SDS011;21762;54.480;18.556;2023-08-20T11:08:43;15.13;;;11.65;;
35188;SDS011;21762;54.480;18.556;2023-08-20T11:11:12;17.63;;;12.82;;
35188;SDS011;21762;54.480;18.556;2023-08-20T11:13:41;18.95;;;13.15;;
35188;SDS011;21762;54.480;18.556;2023-08-20T11:16:10;15.18;;;11.23;;
35188;SDS011;21762;54.480;18.556;2023-08-20T11:18:38;14.05;;;11.40;;
35188;SDS011;21762;54.480;18.556;2023-08-20T11:21:08;13.68;;;12.27;;
35188;SDS011;21762;54.480;18.556;2023-08-20T11:23:36;14.60;;;13.00;;
35188;SDS011;21762;54.480;18.556;2023-08-20T11:26:08;14.40;;;12.90;;
35188;SDS011;21762;54.480;18.556;2023-08-20T11:28:37;15.30;;;13.77;;
35188;SDS011;21762;54.480;18.556;2023-08-20T11:31:05;15.57;;;12.50;;
35188;SDS011;21762;54.480;18.556;2023-08-20T11:33:35;13.90;;;12.38;;
35188;SDS011;21762;54.480;18.556;2023-08-20T11:36:04;14.00;;;11.80;;
35188;SDS011;21762;54.480;18.556;2023-08-20T11:38:34;23.17;;;13.40;;
35188;SDS011;21762;54.480;18.556;2023-08-20T11:41:02;17.58;;;10.23;;
35188;SDS011;21762;54.480;18.556;2023-08-20T11:43:33;13.38;;;11.07;;
35188;SDS011;21762;54.480;18.556;2023-08-20T11:46:02;15.77;;;13.30;;
35188;SDS011;21762;54.480;18.556;2023-08-20T11:48:31;14.82;;;11.02;;
35188;SDS011;21762;54.480;18.556;2023-08-20T11:51:04;13.02;;;11.73;;
35188;SDS011;21762;54.480;18.556;2023-08-20T11:53:32;17.02;;;10.13;;
35188;SDS011;21762;54.480;18.556;2023-08-20T11:56:01;14.75;;;10.95;;
35188;SDS011;21762;54.480;18.556;2023-08-20T11:58:30;10.98;;;9.73;;
35188;SDS011;21762;54.480;18.556;2023-08-20T12:01:00;14.48;;;10.63;;
35188;SDS011;21762;54.480;18.556;2023-08-20T12:03:29;12.68;;;10.60;;
35188;SDS011;21762;54.480;18.556;2023-08-20T12:05:58;12.23;;;9.70;;
35188;SDS011;21762;54.480;18.556;2023-08-20T12:08:27;12.48;;;10.43;;
35188;SDS011;21762;54.480;18.556;2023-08-20T12:10:57;9.95;;;8.60;;
35188;SDS011;21762;54.480;18.556;2023-08-20T12:13:26;11.05;;;9.35;;
35188;SDS011;21762;54.480;18.556;2023-08-20T12:15:56;9.80;;;8.20;;
35188;SDS011;21762;54.480;18.556;2023-08-20T12:18:26;10.98;;;8.85;;
35188;SDS011;21762;54.480;18.556;2023-08-20T12:20:55;12.77;;;9.68;;
35188;SDS011;21762;54.480;18.556;2023-08-20T12:23:24;10.27;;;9.15;;
35188;SDS011;21762;54.480;18.556;2023-08-20T12:25:52;12.43;;;9.45;;
35188;SDS011;21762;54.480;18.556;2023-08-20T12:28:21;10.10;;;8.90;;
35188;SDS011;21762;54.480;18.556;2023-08-20T12:30:52;11.82;;;9.57;;
35188;SDS011;21762;54.480;18.556;2023-08-20T12:33:20;10.50;;;9.27;;
35188;SDS011;21762;54.480;18.556;2023-08-20T12:35:53;14.20;;;9.57;;
35188;SDS011;21762;54.480;18.556;2023-08-20T12:38:22;12.57;;;9.07;;
35188;SDS011;21762;54.480;18.556;2023-08-20T12:40:51;11.10;;;10.00;;
35188;SDS011;21762;54.480;18.556;2023-08-20T12:43:19;13.60;;;11.55;;
35188;SDS011;21762;54.480;18.556;2023-08-20T12:45:48;14.13;;;10.90;;
35188;SDS011;21762;54.480;18.556;2023-08-20T12:48:17;12.15;;;10.85;;
35188;SDS011;21762;54.480;18.556;2023-08-20T12:50:45;12.77;;;10.45;;
35188;SDS011;21762;54.480;18.556;2023-08-20T12:53:16;10.32;;;9.27;;
35188;SDS011;21762;54.480;18.556;2023-08-20T12:55:45;11.90;;;10.45;;
35188;SDS011;21762;54.480;18.556;2023-08-20T12:58:13;11.68;;;9.75;;
35188;SDS011;21762;54.480;18.556;2023-08-20T13:00:42;13.73;;;10.50;;
35188;SDS011;21762;54.480;18.556;2023-08-20T13:03:11;13.95;;;10.90;;
35188;SDS011;21762;54.480;18.556;2023-08-20T13:05:41;13.82;;;10.57;;
35188;SDS011;21762;54.480;18.556;2023-08-20T13:08:10;13.25;;;10.15;;
35188;SDS011;21762;54.480;18.556;2023-08-20T13:10:42;10.60;;;9.50;;
35188;SDS011;21762;54.480;18.556;2023-08-20T13:13:13;10.70;;;9.55;;
35188;SDS011;21762;54.480;18.556;2023-08-20T13:15:42;13.60;;;10.15;;
35188;SDS011;21762;54.480;18.556;2023-08-20T13:18:12;11.18;;;9.35;;
35188;SDS011;21762;54.480;18.556;2023-08-20T13:20:42;12.70;;;10.63;;
35188;SDS011;21762;54.480;18.556;2023-08-20T13:23:11;10.15;;;8.95;;
35188;SDS011;21762;54.480;18.556;2023-08-20T13:25:40;13.50;;;10.70;;
35188;SDS011;21762;54.480;18.556;2023-08-20T13:28:10;11.68;;;8.85;;
35188;SDS011;21762;54.480;18.556;2023-08-20T13:30:39;13.63;;;7.95;;
35188;SDS011;21762;54.480;18.556;2023-08-20T13:33:07;9.95;;;8.15;;
35188;SDS011;21762;54.480;18.556;2023-08-20T13:35:36;8.52;;;7.63;;
35188;SDS011;21762;54.480;18.556;2023-08-20T13:38:05;9.95;;;7.05;;
35188;SDS011;21762;54.480;18.556;2023-08-20T13:40:33;8.73;;;7.90;;
35188;SDS011;21762;54.480;18.556;2023-08-20T13:43:03;8.60;;;7.25;;
35188;SDS011;21762;54.480;18.556;2023-08-20T13:45:33;10.70;;;7.63;;
35188;SDS011;21762;54.480;18.556;2023-08-20T13:48:01;9.75;;;8.13;;
35188;SDS011;21762;54.480;18.556;2023-08-20T13:50:30;7.45;;;6.40;;
35188;SDS011;21762;54.480;18.556;2023-08-20T13:52:59;11.25;;;7.45;;
35188;SDS011;21762;54.480;18.556;2023-08-20T13:55:28;9.32;;;6.85;;
35188;SDS011;21762;54.480;18.556;2023-08-20T13:57:58;11.07;;;7.20;;
35188;SDS011;21762;54.480;18.556;2023-08-20T14:00:28;8.57;;;6.65;;
35188;SDS011;21762;54.480;18.556;2023-08-20T14:02:57;9.23;;;6.53;;
35188;SDS011;21762;54.480;18.556;2023-08-20T14:05:25;8.75;;;6.38;;
35188;SDS011;21762;54.480;18.556;2023-08-20T14:07:56;7.38;;;6.22;;
35188;SDS011;21762;54.480;18.556;2023-08-20T14:10:24;8.55;;;6.90;;
35188;SDS011;21762;54.480;18.556;2023-08-20T14:12:53;11.05;;;6.60;;
35188;SDS011;21762;54.480;18.556;2023-08-20T14:15:22;7.25;;;6.55;;
35188;SDS011;21762;54.480;18.556;2023-08-20T14:17:52;7.90;;;6.95;;
35188;SDS011;21762;54.480;18.556;2023-08-20T14:20:20;11.07;;;6.15;;
35188;SDS011;21762;54.480;18.556;2023-08-20T14:22:49;13.45;;;5.93;;
35188;SDS011;21762;54.480;18.556;2023-08-20T14:25:18;7.43;;;6.72;;
35188;SDS011;21762;54.480;18.556;2023-08-20T14:27:46;7.93;;;6.65;;